Long Beach, CA (90803)

3:41 PM PDT on March 29, 2017 (GMT -0700)
Belmont Heights | | Change Station
Active Advisory: Beach Hazard Statement

Elev 56 ft 33.77 °N, 118.14 °W | Updated 11 seconds ago

Clear
Clear
74.7 °F
Feels Like 75 °F
N
6.5
Wind Variable Wind from South
Gusts 7.4 mph

Today
High -- | Low -- °F
--% Chance of Precip.
Yesterday
High -- | Low -- °F
Precip. -- in
Pressure 30.00 in
Visibility 10.0 miles
Clouds Clear
Heat Index 75 °F
Dew Point 19 °F
Humidity 12%
Rainfall 0.00 in
Snow Depth Not available.
6:43 AM 7:11 PM
Waxing Crescent, 5% visible
METAR KLGB 292153Z 22009KT 200V270 10SM CLR 29/M02 A3000 RMK AO2 SLP157 T02891017 $
Pressure 30.00 in
Visibility 10.0 miles
Clouds Clear
Heat Index 75 °F
Dew Point 19 °F
Humidity 12%
Rainfall 0.00 in
Snow Depth Not available.
6:43 AM 7:11 PM
Waxing Crescent, 5% visible
METAR KLGB 292153Z 22009KT 200V270 10SM CLR 29/M02 A3000 RMK AO2 SLP157 T02891017 $

Get Your Daily Forecast Email!

Thanks for signing up!

Be on the lookout for a verification email in your inbox.

You'll start receiving severe weather alerts in your inbox..

×

10-Day Weather Forecast

Almanac

Astronomy

Mar. 29, 2017 Rise Set
Actual Time
Civil Twilight
Nautical Twilight
Astronomical Twilight
Moon
Length of Visible Light
Length of Day
Tomorrow will be .
, % of the Moon is Illuminated

Today's Extremes

State Highs State Lows

Community

WunderPhotos

Upload Photos

1,962,540 photos uploaded!

WunderBlog® & News

Nearby

Air Quality

  Air Quality AQ Index Pollutant
Not available.

Snow Depth

Station Depth Elevation

Earthquake Activity

City Distance Mag. Time & Date
Minimum magnitude displayed is 2.5.

Earthquake Activity

City Distance Mag. Time & Date
Minimum magnitude displayed is 2.5.

Coastal Water Temperatures

Place Temperature

Stations

Nearby Weather Stations

Station Location Temp. Windchill Dew Point Humidity Wind Precip. Elev Updated Type
                   

Watches & Warnings

Beach Hazard Statement
Issued: 1:45 PM PDT Mar. 29, 2017 – National Weather Service

... Beach hazards statement now in effect through Friday
afternoon...

* hazards... dangerous rip currents and sneaker waves are
expected on west facing beaches due to elevated and strong
surf of 3 to 6 feet.

* Impacts... there is an increased risk for ocean drowning. Rip
currents can pull swimmers and surfers out to sea. Sneaker
waves can suddenly wash people off of beaches and rock
jetties.

Precautionary/preparedness actions...

A beach hazards statement is issued when threats such as rip
currents... longshore currents... sneaker waves and other hazards
create life-threatening conditions in the surf zone. Caution
should be used when in or near the water.



Sweet